sensor_id;sensor_type;location;lat;lon;timestamp;P1;durP1;ratioP1;P2;durP2;ratioP2
14121;SDS011;7139;48.114;11.442;2022-12-18T00:01:22;33.93;;;20.60;;
14121;SDS011;7139;48.114;11.442;2022-12-18T00:03:51;33.13;;;20.30;;
14121;SDS011;7139;48.114;11.442;2022-12-18T00:06:19;30.90;;;20.40;;
14121;SDS011;7139;48.114;11.442;2022-12-18T00:08:47;32.40;;;20.63;;
14121;SDS011;7139;48.114;11.442;2022-12-18T00:11:17;34.27;;;21.47;;
14121;SDS011;7139;48.114;11.442;2022-12-18T00:13:46;31.73;;;20.17;;
14121;SDS011;7139;48.114;11.442;2022-12-18T00:16:14;32.07;;;19.80;;
14121;SDS011;7139;48.114;11.442;2022-12-18T00:18:43;32.30;;;19.90;;
14121;SDS011;7139;48.114;11.442;2022-12-18T00:21:10;31.97;;;19.50;;
14121;SDS011;7139;48.114;11.442;2022-12-18T00:23:38;29.67;;;20.07;;
14121;SDS011;7139;48.114;11.442;2022-12-18T00:26:09;31.77;;;19.87;;
14121;SDS011;7139;48.114;11.442;2022-12-18T00:28:38;32.27;;;20.13;;
14121;SDS011;7139;48.114;11.442;2022-12-18T00:31:06;33.60;;;20.77;;
14121;SDS011;7139;48.114;11.442;2022-12-18T00:33:34;35.47;;;22.10;;
14121;SDS011;7139;48.114;11.442;2022-12-18T00:36:02;35.43;;;21.70;;
14121;SDS011;7139;48.114;11.442;2022-12-18T00:38:30;36.27;;;21.20;;
14121;SDS011;7139;48.114;11.442;2022-12-18T00:40:57;36.33;;;21.27;;
14121;SDS011;7139;48.114;11.442;2022-12-18T00:43:24;37.27;;;21.93;;
14121;SDS011;7139;48.114;11.442;2022-12-18T00:45:51;35.00;;;21.03;;
14121;SDS011;7139;48.114;11.442;2022-12-18T00:48:18;33.30;;;21.30;;
14121;SDS011;7139;48.114;11.442;2022-12-18T00:50:46;38.20;;;21.03;;
14121;SDS011;7139;48.114;11.442;2022-12-18T00:53:14;37.83;;;22.30;;
14121;SDS011;7139;48.114;11.442;2022-12-18T00:55:41;35.70;;;21.23;;
14121;SDS011;7139;48.114;11.442;2022-12-18T00:58:08;36.13;;;21.83;;
14121;SDS011;7139;48.114;11.442;2022-12-18T01:00:35;33.23;;;20.03;;
14121;SDS011;7139;48.114;11.442;2022-12-18T01:03:04;34.27;;;20.10;;
14121;SDS011;7139;48.114;11.442;2022-12-18T01:05:31;31.77;;;20.23;;
14121;SDS011;7139;48.114;11.442;2022-12-18T01:07:58;34.17;;;19.87;;
14121;SDS011;7139;48.114;11.442;2022-12-18T01:10:26;33.60;;;20.33;;
14121;SDS011;7139;48.114;11.442;2022-12-18T01:12:52;35.27;;;20.90;;
14121;SDS011;7139;48.114;11.442;2022-12-18T01:15:20;33.80;;;20.13;;
14121;SDS011;7139;48.114;11.442;2022-12-18T01:17:47;33.77;;;20.83;;
14121;SDS011;7139;48.114;11.442;2022-12-18T01:20:15;32.57;;;18.97;;
14121;SDS011;7139;48.114;11.442;2022-12-18T01:22:41;31.40;;;19.07;;
14121;SDS011;7139;48.114;11.442;2022-12-18T01:25:08;34.37;;;19.63;;
14121;SDS011;7139;48.114;11.442;2022-12-18T01:27:35;31.43;;;19.03;;
14121;SDS011;7139;48.114;11.442;2022-12-18T01:30:03;33.37;;;19.57;;
14121;SDS011;7139;48.114;11.442;2022-12-18T01:32:30;39.37;;;21.23;;
14121;SDS011;7139;48.114;11.442;2022-12-18T01:34:58;33.03;;;19.40;;
14121;SDS011;7139;48.114;11.442;2022-12-18T01:37:26;30.17;;;18.43;;
14121;SDS011;7139;48.114;11.442;2022-12-18T01:39:53;31.10;;;19.50;;
14121;SDS011;7139;48.114;11.442;2022-12-18T01:42:20;28.33;;;17.33;;
14121;SDS011;7139;48.114;11.442;2022-12-18T01:44:54;29.47;;;17.83;;
14121;SDS011;7139;48.114;11.442;2022-12-18T01:47:28;30.17;;;17.67;;
14121;SDS011;7139;48.114;11.442;2022-12-18T01:50:02;29.47;;;17.67;;
14121;SDS011;7139;48.114;11.442;2022-12-18T01:52:33;31.77;;;18.07;;
14121;SDS011;7139;48.114;11.442;2022-12-18T01:55:02;31.27;;;17.83;;
14121;SDS011;7139;48.114;11.442;2022-12-18T01:57:31;32.03;;;19.10;;
14121;SDS011;7139;48.114;11.442;2022-12-18T01:59:59;31.50;;;18.83;;
14121;SDS011;7139;48.114;11.442;2022-12-18T02:02:29;32.93;;;19.90;;
14121;SDS011;7139;48.114;11.442;2022-12-18T02:04:56;33.07;;;18.67;;
14121;SDS011;7139;48.114;11.442;2022-12-18T02:07:25;35.90;;;20.60;;
14121;SDS011;7139;48.114;11.442;2022-12-18T02:10:02;32.17;;;18.23;;
14121;SDS011;7139;48.114;11.442;2022-12-18T02:12:34;34.57;;;19.80;;
14121;SDS011;7139;48.114;11.442;2022-12-18T02:15:10;35.43;;;18.83;;
14121;SDS011;7139;48.114;11.442;2022-12-18T02:17:41;32.47;;;18.67;;
14121;SDS011;7139;48.114;11.442;2022-12-18T02:20:14;32.50;;;19.20;;
14121;SDS011;7139;48.114;11.442;2022-12-18T02:22:49;29.70;;;18.87;;
14121;SDS011;7139;48.114;11.442;2022-12-18T02:25:38;30.67;;;17.47;;
14121;SDS011;7139;48.114;11.442;2022-12-18T02:28:13;33.03;;;19.10;;
14121;SDS011;7139;48.114;11.442;2022-12-18T02:30:45;30.93;;;19.00;;
14121;SDS011;7139;48.114;11.442;2022-12-18T02:33:14;28.57;;;17.70;;
14121;SDS011;7139;48.114;11.442;2022-12-18T02:35:42;33.47;;;19.17;;
14121;SDS011;7139;48.114;11.442;2022-12-18T02:38:11;29.80;;;18.67;;
14121;SDS011;7139;48.114;11.442;2022-12-18T02:40:39;33.53;;;19.80;;
14121;SDS011;7139;48.114;11.442;2022-12-18T02:43:08;35.40;;;19.50;;
14121;SDS011;7139;48.114;11.442;2022-12-18T02:45:45;33.40;;;19.67;;
14121;SDS011;7139;48.114;11.442;2022-12-18T02:48:13;34.07;;;19.47;;
14121;SDS011;7139;48.114;11.442;2022-12-18T02:50:41;34.53;;;18.67;;
14121;SDS011;7139;48.114;11.442;2022-12-18T02:53:17;36.10;;;20.33;;
14121;SDS011;7139;48.114;11.442;2022-12-18T02:55:53;32.47;;;19.17;;
14121;SDS011;7139;48.114;11.442;2022-12-18T02:58:34;33.90;;;18.87;;
14121;SDS011;7139;48.114;11.442;2022-12-18T03:01:09;30.97;;;18.47;;
14121;SDS011;7139;48.114;11.442;2022-12-18T03:03:41;33.57;;;19.50;;
14121;SDS011;7139;48.114;11.442;2022-12-18T03:06:14;34.27;;;19.33;;
14121;SDS011;7139;48.114;11.442;2022-12-18T03:08:48;36.10;;;20.43;;
14121;SDS011;7139;48.114;11.442;2022-12-18T03:11:18;39.67;;;20.60;;
14121;SDS011;7139;48.114;11.442;2022-12-18T03:14:05;35.50;;;20.20;;
14121;SDS011;7139;48.114;11.442;2022-12-18T03:16:35;36.17;;;21.03;;
14121;SDS011;7139;48.114;11.442;2022-12-18T03:19:03;35.77;;;21.30;;
14121;SDS011;7139;48.114;11.442;2022-12-18T03:21:35;36.17;;;21.17;;
14121;SDS011;7139;48.114;11.442;2022-12-18T03:24:08;36.03;;;20.47;;
14121;SDS011;7139;48.114;11.442;2022-12-18T03:26:37;38.03;;;21.10;;
14121;SDS011;7139;48.114;11.442;2022-12-18T03:29:07;37.27;;;21.30;;
14121;SDS011;7139;48.114;11.442;2022-12-18T03:31:40;37.80;;;20.97;;
14121;SDS011;7139;48.114;11.442;2022-12-18T03:34:12;36.70;;;20.63;;
14121;SDS011;7139;48.114;11.442;2022-12-18T03:36:43;37.87;;;21.13;;
14121;SDS011;7139;48.114;11.442;2022-12-18T03:39:10;34.20;;;20.70;;
14121;SDS011;7139;48.114;11.442;2022-12-18T03:41:38;37.67;;;21.27;;
14121;SDS011;7139;48.114;11.442;2022-12-18T03:44:11;37.97;;;21.27;;
14121;SDS011;7139;48.114;11.442;2022-12-18T03:46:43;37.03;;;21.53;;
14121;SDS011;7139;48.114;11.442;2022-12-18T03:49:16;38.23;;;21.93;;
14121;SDS011;7139;48.114;11.442;2022-12-18T03:51:50;40.13;;;22.03;;
14121;SDS011;7139;48.114;11.442;2022-12-18T03:54:20;39.70;;;20.87;;
14121;SDS011;7139;48.114;11.442;2022-12-18T03:56:48;39.63;;;21.90;;
14121;SDS011;7139;48.114;11.442;2022-12-18T03:59:21;40.70;;;21.67;;
14121;SDS011;7139;48.114;11.442;2022-12-18T04:01:50;37.93;;;21.83;;
14121;SDS011;7139;48.114;11.442;2022-12-18T04:04:20;41.90;;;22.90;;
14121;SDS011;7139;48.114;11.442;2022-12-18T04:06:49;39.50;;;22.40;;
14121;SDS011;7139;48.114;11.442;2022-12-18T04:09:17;35.97;;;21.03;;
14121;SDS011;7139;48.114;11.442;2022-12-18T04:11:45;37.83;;;21.03;;
14121;SDS011;7139;48.114;11.442;2022-12-18T04:14:13;39.50;;;21.17;;
14121;SDS011;7139;48.114;11.442;2022-12-18T04:16:39;38.33;;;21.13;;
14121;SDS011;7139;48.114;11.442;2022-12-18T04:19:08;37.07;;;20.47;;
14121;SDS011;7139;48.114;11.442;2022-12-18T04:21:34;39.33;;;21.60;;
14121;SDS011;7139;48.114;11.442;2022-12-18T04:24:01;37.83;;;21.80;;
14121;SDS011;7139;48.114;11.442;2022-12-18T04:26:28;35.77;;;21.27;;
14121;SDS011;7139;48.114;11.442;2022-12-18T04:28:55;36.87;;;20.57;;
14121;SDS011;7139;48.114;11.442;2022-12-18T04:31:21;31.60;;;20.33;;
14121;SDS011;7139;48.114;11.442;2022-12-18T04:33:48;37.27;;;21.33;;
14121;SDS011;7139;48.114;11.442;2022-12-18T04:36:16;37.73;;;21.17;;
14121;SDS011;7139;48.114;11.442;2022-12-18T04:38:43;35.43;;;20.47;;
14121;SDS011;7139;48.114;11.442;2022-12-18T04:41:13;35.90;;;21.40;;
14121;SDS011;7139;48.114;11.442;2022-12-18T04:43:40;34.43;;;19.70;;
14121;SDS011;7139;48.114;11.442;2022-12-18T04:46:07;36.83;;;21.03;;
14121;SDS011;7139;48.114;11.442;2022-12-18T04:48:34;37.97;;;21.47;;
14121;SDS011;7139;48.114;11.442;2022-12-18T04:51:02;35.00;;;19.87;;
14121;SDS011;7139;48.114;11.442;2022-12-18T04:53:30;37.80;;;21.47;;
14121;SDS011;7139;48.114;11.442;2022-12-18T04:56:04;35.47;;;21.47;;
14121;SDS011;7139;48.114;11.442;2022-12-18T04:58:33;40.40;;;22.50;;
14121;SDS011;7139;48.114;11.442;2022-12-18T05:01:00;39.50;;;22.63;;
14121;SDS011;7139;48.114;11.442;2022-12-18T05:03:27;39.77;;;22.97;;
14121;SDS011;7139;48.114;11.442;2022-12-18T05:05:53;36.90;;;21.03;;
14121;SDS011;7139;48.114;11.442;2022-12-18T05:08:20;38.30;;;22.13;;
14121;SDS011;7139;48.114;11.442;2022-12-18T05:10:48;36.97;;;20.90;;
14121;SDS011;7139;48.114;11.442;2022-12-18T05:13:15;38.03;;;22.10;;
14121;SDS011;7139;48.114;11.442;2022-12-18T05:15:42;37.57;;;21.27;;
14121;SDS011;7139;48.114;11.442;2022-12-18T05:18:08;36.20;;;20.53;;
14121;SDS011;7139;48.114;11.442;2022-12-18T05:20:35;40.37;;;21.63;;
14121;SDS011;7139;48.114;11.442;2022-12-18T05:23:02;40.83;;;23.27;;
14121;SDS011;7139;48.114;11.442;2022-12-18T05:25:29;36.70;;;21.77;;
14121;SDS011;7139;48.114;11.442;2022-12-18T05:27:57;39.57;;;22.10;;
14121;SDS011;7139;48.114;11.442;2022-12-18T05:30:23;38.37;;;22.23;;
14121;SDS011;7139;48.114;11.442;2022-12-18T05:32:50;39.50;;;22.30;;
14121;SDS011;7139;48.114;11.442;2022-12-18T05:35:17;34.20;;;20.63;;
14121;SDS011;7139;48.114;11.442;2022-12-18T05:37:44;34.57;;;19.83;;
14121;SDS011;7139;48.114;11.442;2022-12-18T05:40:11;35.50;;;20.60;;
14121;SDS011;7139;48.114;11.442;2022-12-18T05:42:39;34.90;;;19.60;;
14121;SDS011;7139;48.114;11.442;2022-12-18T05:45:07;31.60;;;19.87;;
14121;SDS011;7139;48.114;11.442;2022-12-18T05:47:34;37.63;;;21.40;;
14121;SDS011;7139;48.114;11.442;2022-12-18T05:50:02;34.50;;;19.40;;
14121;SDS011;7139;48.114;11.442;2022-12-18T05:52:29;33.07;;;20.07;;
14121;SDS011;7139;48.114;11.442;2022-12-18T05:54:56;34.40;;;20.30;;
14121;SDS011;7139;48.114;11.442;2022-12-18T05:57:23;35.53;;;20.13;;
14121;SDS011;7139;48.114;11.442;2022-12-18T05:59:50;37.17;;;20.67;;
14121;SDS011;7139;48.114;11.442;2022-12-18T06:02:18;34.27;;;19.20;;
14121;SDS011;7139;48.114;11.442;2022-12-18T06:04:46;29.77;;;18.47;;
14121;SDS011;7139;48.114;11.442;2022-12-18T06:07:13;33.30;;;20.17;;
14121;SDS011;7139;48.114;11.442;2022-12-18T06:09:39;31.33;;;20.07;;
14121;SDS011;7139;48.114;11.442;2022-12-18T06:12:06;34.30;;;19.27;;
14121;SDS011;7139;48.114;11.442;2022-12-18T06:14:33;33.97;;;19.30;;
14121;SDS011;7139;48.114;11.442;2022-12-18T06:17:00;31.63;;;18.87;;
14121;SDS011;7139;48.114;11.442;2022-12-18T06:19:28;33.80;;;19.03;;
14121;SDS011;7139;48.114;11.442;2022-12-18T06:21:54;32.47;;;18.93;;
14121;SDS011;7139;48.114;11.442;2022-12-18T06:24:23;30.83;;;18.23;;
14121;SDS011;7139;48.114;11.442;2022-12-18T06:26:50;34.77;;;20.40;;
14121;SDS011;7139;48.114;11.442;2022-12-18T06:29:17;33.93;;;18.83;;
14121;SDS011;7139;48.114;11.442;2022-12-18T06:31:44;31.30;;;18.63;;
14121;SDS011;7139;48.114;11.442;2022-12-18T06:34:10;33.57;;;19.93;;
14121;SDS011;7139;48.114;11.442;2022-12-18T06:36:38;31.40;;;18.67;;
14121;SDS011;7139;48.114;11.442;2022-12-18T06:39:05;30.23;;;18.43;;
14121;SDS011;7139;48.114;11.442;2022-12-18T06:41:32;30.67;;;19.47;;
14121;SDS011;7139;48.114;11.442;2022-12-18T06:43:59;31.13;;;19.20;;
14121;SDS011;7139;48.114;11.442;2022-12-18T06:46:25;28.17;;;17.97;;
14121;SDS011;7139;48.114;11.442;2022-12-18T06:48:52;30.57;;;18.63;;
14121;SDS011;7139;48.114;11.442;2022-12-18T06:51:19;26.80;;;17.73;;
14121;SDS011;7139;48.114;11.442;2022-12-18T06:53:48;26.37;;;17.30;;
14121;SDS011;7139;48.114;11.442;2022-12-18T06:56:16;26.20;;;16.60;;
14121;SDS011;7139;48.114;11.442;2022-12-18T06:58:43;28.10;;;18.00;;
14121;SDS011;7139;48.114;11.442;2022-12-18T07:01:10;26.97;;;17.87;;
14121;SDS011;7139;48.114;11.442;2022-12-18T07:03:38;26.53;;;17.30;;
14121;SDS011;7139;48.114;11.442;2022-12-18T07:06:06;25.70;;;17.53;;
14121;SDS011;7139;48.114;11.442;2022-12-18T07:08:38;28.70;;;17.63;;
14121;SDS011;7139;48.114;11.442;2022-12-18T07:11:06;27.17;;;17.90;;
14121;SDS011;7139;48.114;11.442;2022-12-18T07:13:33;26.33;;;16.47;;
14121;SDS011;7139;48.114;11.442;2022-12-18T07:16:03;27.70;;;17.17;;
14121;SDS011;7139;48.114;11.442;2022-12-18T07:18:31;27.67;;;17.07;;
14121;SDS011;7139;48.114;11.442;2022-12-18T07:20:58;30.03;;;17.13;;
14121;SDS011;7139;48.114;11.442;2022-12-18T07:23:29;27.47;;;17.07;;
14121;SDS011;7139;48.114;11.442;2022-12-18T07:25:59;28.43;;;17.93;;
14121;SDS011;7139;48.114;11.442;2022-12-18T07:28:28;29.33;;;18.43;;
14121;SDS011;7139;48.114;11.442;2022-12-18T07:30:55;26.87;;;16.43;;
14121;SDS011;7139;48.114;11.442;2022-12-18T07:33:22;28.63;;;17.73;;
14121;SDS011;7139;48.114;11.442;2022-12-18T07:35:49;30.80;;;17.67;;
14121;SDS011;7139;48.114;11.442;2022-12-18T07:38:16;27.50;;;17.13;;
14121;SDS011;7139;48.114;11.442;2022-12-18T07:40:42;28.93;;;18.03;;
14121;SDS011;7139;48.114;11.442;2022-12-18T07:43:09;29.33;;;18.47;;
14121;SDS011;7139;48.114;11.442;2022-12-18T07:45:37;32.10;;;18.17;;
14121;SDS011;7139;48.114;11.442;2022-12-18T07:48:04;29.13;;;17.63;;
14121;SDS011;7139;48.114;11.442;2022-12-18T07:50:31;28.30;;;17.40;;
14121;SDS011;7139;48.114;11.442;2022-12-18T07:52:58;29.90;;;17.30;;
14121;SDS011;7139;48.114;11.442;2022-12-18T07:55:28;32.53;;;18.53;;
14121;SDS011;7139;48.114;11.442;2022-12-18T07:57:55;29.93;;;18.93;;
14121;SDS011;7139;48.114;11.442;2022-12-18T08:00:22;31.10;;;18.13;;
14121;SDS011;7139;48.114;11.442;2022-12-18T08:02:50;33.47;;;20.03;;
14121;SDS011;7139;48.114;11.442;2022-12-18T08:05:17;30.63;;;19.03;;
14121;SDS011;7139;48.114;11.442;2022-12-18T08:07:43;28.20;;;18.43;;
14121;SDS011;7139;48.114;11.442;2022-12-18T08:10:10;30.10;;;17.67;;
14121;SDS011;7139;48.114;11.442;2022-12-18T08:12:37;29.77;;;18.50;;
14121;SDS011;7139;48.114;11.442;2022-12-18T08:15:04;30.00;;;17.77;;
14121;SDS011;7139;48.114;11.442;2022-12-18T08:17:32;30.43;;;18.43;;
14121;SDS011;7139;48.114;11.442;2022-12-18T08:20:00;30.13;;;18.40;;
14121;SDS011;7139;48.114;11.442;2022-12-18T08:22:27;28.87;;;18.20;;
14121;SDS011;7139;48.114;11.442;2022-12-18T08:24:53;28.90;;;18.53;;
14121;SDS011;7139;48.114;11.442;2022-12-18T08:27:20;28.83;;;17.57;;
14121;SDS011;7139;48.114;11.442;2022-12-18T08:29:47;26.83;;;16.87;;
14121;SDS011;7139;48.114;11.442;2022-12-18T08:32:14;29.63;;;17.50;;
14121;SDS011;7139;48.114;11.442;2022-12-18T08:34:41;30.13;;;18.17;;
14121;SDS011;7139;48.114;11.442;2022-12-18T08:37:09;29.83;;;18.40;;
14121;SDS011;7139;48.114;11.442;2022-12-18T08:39:36;25.90;;;16.50;;
14121;SDS011;7139;48.114;11.442;2022-12-18T08:42:03;28.83;;;18.00;;
14121;SDS011;7139;48.114;11.442;2022-12-18T08:44:47;33.10;;;19.07;;
14121;SDS011;7139;48.114;11.442;2022-12-18T08:47:14;28.67;;;18.00;;
14121;SDS011;7139;48.114;11.442;2022-12-18T08:49:40;31.90;;;17.57;;
14121;SDS011;7139;48.114;11.442;2022-12-18T08:52:07;29.77;;;18.77;;
14121;SDS011;7139;48.114;11.442;2022-12-18T08:54:35;29.43;;;16.87;;
14121;SDS011;7139;48.114;11.442;2022-12-18T08:57:02;27.17;;;17.97;;
14121;SDS011;7139;48.114;11.442;2022-12-18T08:59:29;30.97;;;18.57;;
14121;SDS011;7139;48.114;11.442;2022-12-18T09:01:55;30.67;;;18.00;;
14121;SDS011;7139;48.114;11.442;2022-12-18T09:04:22;27.53;;;17.57;;
14121;SDS011;7139;48.114;11.442;2022-12-18T09:06:49;29.50;;;17.90;;
14121;SDS011;7139;48.114;11.442;2022-12-18T09:09:16;26.47;;;16.57;;
14121;SDS011;7139;48.114;11.442;2022-12-18T09:11:44;30.30;;;17.93;;
14121;SDS011;7139;48.114;11.442;2022-12-18T09:14:10;29.37;;;18.03;;
14121;SDS011;7139;48.114;11.442;2022-12-18T09:16:37;29.97;;;18.00;;
14121;SDS011;7139;48.114;11.442;2022-12-18T09:19:04;28.07;;;17.17;;
14121;SDS011;7139;48.114;11.442;2022-12-18T09:21:32;29.83;;;17.97;;
14121;SDS011;7139;48.114;11.442;2022-12-18T09:24:00;30.77;;;17.20;;
14121;SDS011;7139;48.114;11.442;2022-12-18T09:26:26;27.77;;;16.73;;
14121;SDS011;7139;48.114;11.442;2022-12-18T09:28:55;30.63;;;18.17;;
14121;SDS011;7139;48.114;11.442;2022-12-18T09:31:22;30.43;;;17.60;;
14121;SDS011;7139;48.114;11.442;2022-12-18T09:33:50;29.27;;;17.23;;
14121;SDS011;7139;48.114;11.442;2022-12-18T09:36:17;29.43;;;17.70;;
14121;SDS011;7139;48.114;11.442;2022-12-18T09:38:44;30.27;;;17.37;;
14121;SDS011;7139;48.114;11.442;2022-12-18T09:41:17;27.40;;;16.90;;
14121;SDS011;7139;48.114;11.442;2022-12-18T09:44:01;28.60;;;17.53;;
14121;SDS011;7139;48.114;11.442;2022-12-18T09:46:32;29.90;;;17.37;;
14121;SDS011;7139;48.114;11.442;2022-12-18T09:49:07;29.80;;;17.93;;
14121;SDS011;7139;48.114;11.442;2022-12-18T09:51:39;28.90;;;17.67;;
14121;SDS011;7139;48.114;11.442;2022-12-18T09:54:11;27.53;;;17.33;;
14121;SDS011;7139;48.114;11.442;2022-12-18T09:56:42;29.30;;;17.63;;
14121;SDS011;7139;48.114;11.442;2022-12-18T09:59:16;28.80;;;16.70;;
14121;SDS011;7139;48.114;11.442;2022-12-18T10:01:48;26.80;;;17.03;;
14121;SDS011;7139;48.114;11.442;2022-12-18T10:04:15;28.10;;;17.10;;
14121;SDS011;7139;48.114;11.442;2022-12-18T10:06:43;24.97;;;16.33;;
14121;SDS011;7139;48.114;11.442;2022-12-18T10:09:17;26.73;;;16.63;;
14121;SDS011;7139;48.114;11.442;2022-12-18T10:11:53;27.20;;;17.93;;
14121;SDS011;7139;48.114;11.442;2022-12-18T10:14:29;27.90;;;17.30;;
14121;SDS011;7139;48.114;11.442;2022-12-18T10:17:02;27.07;;;16.57;;
14121;SDS011;7139;48.114;11.442;2022-12-18T10:19:36;28.00;;;16.60;;
14121;SDS011;7139;48.114;11.442;2022-12-18T10:22:12;29.30;;;17.43;;
14121;SDS011;7139;48.114;11.442;2022-12-18T10:24:55;26.20;;;16.20;;
14121;SDS011;7139;48.114;11.442;2022-12-18T10:27:27;27.27;;;15.93;;
14121;SDS011;7139;48.114;11.442;2022-12-18T10:29:56;26.93;;;16.30;;
14121;SDS011;7139;48.114;11.442;2022-12-18T10:32:25;25.50;;;15.50;;
14121;SDS011;7139;48.114;11.442;2022-12-18T10:34:54;28.30;;;17.10;;
14121;SDS011;7139;48.114;11.442;2022-12-18T10:37:22;27.87;;;16.83;;
14121;SDS011;7139;48.114;11.442;2022-12-18T10:40:04;27.13;;;17.10;;
14121;SDS011;7139;48.114;11.442;2022-12-18T10:42:34;25.07;;;16.70;;
14121;SDS011;7139;48.114;11.442;2022-12-18T10:45:05;27.23;;;17.40;;
14121;SDS011;7139;48.114;11.442;2022-12-18T10:47:35;23.83;;;15.33;;
14121;SDS011;7139;48.114;11.442;2022-12-18T10:50:02;26.50;;;16.17;;
14121;SDS011;7139;48.114;11.442;2022-12-18T10:52:30;24.83;;;15.30;;
14121;SDS011;7139;48.114;11.442;2022-12-18T10:54:57;25.43;;;15.70;;
14121;SDS011;7139;48.114;11.442;2022-12-18T10:57:31;25.13;;;16.30;;
14121;SDS011;7139;48.114;11.442;2022-12-18T11:00:03;25.67;;;16.27;;
14121;SDS011;7139;48.114;11.442;2022-12-18T11:02:49;24.27;;;14.90;;
14121;SDS011;7139;48.114;11.442;2022-12-18T11:05:23;26.87;;;16.60;;
14121;SDS011;7139;48.114;11.442;2022-12-18T11:07:52;27.53;;;16.37;;
14121;SDS011;7139;48.114;11.442;2022-12-18T11:10:21;27.37;;;17.00;;
14121;SDS011;7139;48.114;11.442;2022-12-18T11:12:51;25.93;;;16.30;;
14121;SDS011;7139;48.114;11.442;2022-12-18T11:15:19;27.67;;;16.40;;
14121;SDS011;7139;48.114;11.442;2022-12-18T11:17:51;25.47;;;16.43;;
14121;SDS011;7139;48.114;11.442;2022-12-18T11:20:23;28.73;;;15.70;;
14121;SDS011;7139;48.114;11.442;2022-12-18T11:22:57;27.93;;;16.70;;
14121;SDS011;7139;48.114;11.442;2022-12-18T11:25:26;28.70;;;17.17;;
14121;SDS011;7139;48.114;11.442;2022-12-18T11:27:54;27.20;;;17.10;;
14121;SDS011;7139;48.114;11.442;2022-12-18T11:30:25;27.03;;;17.67;;
14121;SDS011;7139;48.114;11.442;2022-12-18T11:32:55;26.70;;;16.87;;
14121;SDS011;7139;48.114;11.442;2022-12-18T11:35:30;24.97;;;16.03;;
14121;SDS011;7139;48.114;11.442;2022-12-18T11:38:04;27.80;;;16.47;;
14121;SDS011;7139;48.114;11.442;2022-12-18T11:40:38;27.63;;;17.10;;
14121;SDS011;7139;48.114;11.442;2022-12-18T11:43:10;27.07;;;17.13;;
14121;SDS011;7139;48.114;11.442;2022-12-18T11:45:43;27.20;;;17.20;;
14121;SDS011;7139;48.114;11.442;2022-12-18T11:48:16;28.27;;;17.50;;
14121;SDS011;7139;48.114;11.442;2022-12-18T11:50:48;26.33;;;16.67;;
14121;SDS011;7139;48.114;11.442;2022-12-18T11:53:17;28.10;;;16.83;;
14121;SDS011;7139;48.114;11.442;2022-12-18T11:55:49;27.97;;;17.23;;
14121;SDS011;7139;48.114;11.442;2022-12-18T11:58:29;25.87;;;16.37;;
14121;SDS011;7139;48.114;11.442;2022-12-18T12:01:15;28.03;;;17.10;;
14121;SDS011;7139;48.114;11.442;2022-12-18T12:06:49;29.73;;;17.90;;
14121;SDS011;7139;48.114;11.442;2022-12-18T12:09:22;27.43;;;16.60;;
14121;SDS011;7139;48.114;11.442;2022-12-18T12:12:01;25.17;;;16.20;;
14121;SDS011;7139;48.114;11.442;2022-12-18T12:14:46;29.20;;;17.27;;
14121;SDS011;7139;48.114;11.442;2022-12-18T12:17:26;25.57;;;16.83;;
14121;SDS011;7139;48.114;11.442;2022-12-18T12:20:04;24.27;;;15.97;;
14121;SDS011;7139;48.114;11.442;2022-12-18T12:22:36;25.60;;;15.93;;
14121;SDS011;7139;48.114;11.442;2022-12-18T12:25:16;25.97;;;16.73;;
14121;SDS011;7139;48.114;11.442;2022-12-18T12:27:57;25.00;;;15.67;;
14121;SDS011;7139;48.114;11.442;2022-12-18T12:30:38;26.07;;;16.73;;
14121;SDS011;7139;48.114;11.442;2022-12-18T12:33:16;23.67;;;15.07;;
14121;SDS011;7139;48.114;11.442;2022-12-18T12:35:55;24.93;;;15.53;;
14121;SDS011;7139;48.114;11.442;2022-12-18T12:38:31;25.93;;;16.50;;
14121;SDS011;7139;48.114;11.442;2022-12-18T12:41:03;25.87;;;16.27;;
14121;SDS011;7139;48.114;11.442;2022-12-18T12:43:53;24.63;;;14.83;;
14121;SDS011;7139;48.114;11.442;2022-12-18T12:46:22;28.17;;;15.60;;
14121;SDS011;7139;48.114;11.442;2022-12-18T12:48:51;26.37;;;16.50;;
14121;SDS011;7139;48.114;11.442;2022-12-18T12:51:22;29.43;;;16.73;;
14121;SDS011;7139;48.114;11.442;2022-12-18T12:53:51;28.13;;;17.13;;
14121;SDS011;7139;48.114;11.442;2022-12-18T12:56:20;25.40;;;15.63;;
14121;SDS011;7139;48.114;11.442;2022-12-18T12:58:54;26.03;;;16.00;;
14121;SDS011;7139;48.114;11.442;2022-12-18T13:01:25;28.60;;;17.00;;
14121;SDS011;7139;48.114;11.442;2022-12-18T13:04:08;26.20;;;16.00;;
14121;SDS011;7139;48.114;11.442;2022-12-18T13:06:46;26.70;;;16.77;;
14121;SDS011;7139;48.114;11.442;2022-12-18T13:09:20;26.17;;;16.77;;
14121;SDS011;7139;48.114;11.442;2022-12-18T13:11:46;24.87;;;15.37;;
14121;SDS011;7139;48.114;11.442;2022-12-18T13:14:31;26.80;;;16.60;;
14121;SDS011;7139;48.114;11.442;2022-12-18T13:17:16;30.53;;;16.87;;
14121;SDS011;7139;48.114;11.442;2022-12-18T13:22:45;24.60;;;14.97;;
14121;SDS011;7139;48.114;11.442;2022-12-18T13:25:27;25.50;;;16.47;;
14121;SDS011;7139;48.114;11.442;2022-12-18T13:28:08;22.63;;;15.57;;
14121;SDS011;7139;48.114;11.442;2022-12-18T13:30:41;22.70;;;15.30;;
14121;SDS011;7139;48.114;11.442;2022-12-18T13:36:27;23.33;;;15.30;;
14121;SDS011;7139;48.114;11.442;2022-12-18T13:41:51;23.70;;;14.50;;
14121;SDS011;7139;48.114;11.442;2022-12-18T13:44:23;25.57;;;15.20;;
14121;SDS011;7139;48.114;11.442;2022-12-18T13:46:58;25.67;;;15.57;;
14121;SDS011;7139;48.114;11.442;2022-12-18T13:49:26;24.43;;;14.70;;
14121;SDS011;7139;48.114;11.442;2022-12-18T13:52:03;27.90;;;16.13;;
14121;SDS011;7139;48.114;11.442;2022-12-18T13:54:43;28.20;;;16.93;;
14121;SDS011;7139;48.114;11.442;2022-12-18T13:57:25;26.13;;;15.67;;
14121;SDS011;7139;48.114;11.442;2022-12-18T13:59:52;23.77;;;15.40;;
14121;SDS011;7139;48.114;11.442;2022-12-18T14:02:21;25.70;;;15.43;;
14121;SDS011;7139;48.114;11.442;2022-12-18T14:04:48;26.63;;;15.57;;
14121;SDS011;7139;48.114;11.442;2022-12-18T14:07:18;25.40;;;15.07;;
14121;SDS011;7139;48.114;11.442;2022-12-18T14:09:48;24.73;;;15.50;;
14121;SDS011;7139;48.114;11.442;2022-12-18T14:12:17;24.13;;;15.10;;
14121;SDS011;7139;48.114;11.442;2022-12-18T14:15:06;24.63;;;14.67;;
14121;SDS011;7139;48.114;11.442;2022-12-18T14:17:46;26.07;;;15.53;;
14121;SDS011;7139;48.114;11.442;2022-12-18T14:20:13;22.17;;;14.60;;
14121;SDS011;7139;48.114;11.442;2022-12-18T14:22:43;25.97;;;16.23;;
14121;SDS011;7139;48.114;11.442;2022-12-18T14:25:14;26.80;;;16.10;;
14121;SDS011;7139;48.114;11.442;2022-12-18T14:27:44;23.60;;;14.60;;
14121;SDS011;7139;48.114;11.442;2022-12-18T14:30:27;23.37;;;14.77;;
14121;SDS011;7139;48.114;11.442;2022-12-18T14:33:02;22.97;;;14.57;;
14121;SDS011;7139;48.114;11.442;2022-12-18T14:35:30;22.20;;;14.00;;
14121;SDS011;7139;48.114;11.442;2022-12-18T14:40:57;26.03;;;15.97;;
14121;SDS011;7139;48.114;11.442;2022-12-18T14:43:24;25.83;;;15.27;;
14121;SDS011;7139;48.114;11.442;2022-12-18T14:45:52;27.43;;;15.63;;
14121;SDS011;7139;48.114;11.442;2022-12-18T14:48:20;24.77;;;15.30;;
14121;SDS011;7139;48.114;11.442;2022-12-18T14:50:55;25.57;;;15.23;;
14121;SDS011;7139;48.114;11.442;2022-12-18T14:53:28;22.57;;;14.50;;